Time,TemperatureF,DewpointF,PressureIn,WindDirection,WindDirectionDegrees,WindSpeedMPH,WindSpeedGustMPH,Humidity,HourlyPrecipIn,Conditions,Clouds,dailyrainin,SolarRadiationWatts/m^2,SoftwareType,DateUTC
2013-05-28 00:02:00,50.0,45.0,-100.00,ESE,118,2.0,6.0,83,-99.99,,,0.00,0.000000,,2013-05-28 06:02:00,
2013-05-28 00:11:00,50.0,45.0,-100.00,ESE,118,2.0,6.0,83,-99.99,,,0.00,0.000000,,2013-05-28 06:11:00,
2013-05-28 00:31:00,49.0,47.0,-100.00,WSW,252,1.0,2.0,94,-99.99,,,0.00,0.120000,,2013-05-28 06:31:00,
2013-05-28 00:41:00,49.0,47.0,-100.00,WSW,252,1.0,2.0,94,-99.99,,,0.00,0.120000,,2013-05-28 06:41:00,
2013-05-28 00:52:00,49.0,47.0,-100.00,WSW,252,1.0,2.0,94,-99.99,,,0.00,0.120000,,2013-05-28 06:52:00,
2013-05-28 01:01:00,49.0,47.0,-100.00,WSW,252,1.0,2.0,94,-99.99,,,0.00,0.120000,,2013-05-28 07:01:00,
2013-05-28 01:11:00,49.0,47.0,-100.00,WSW,252,1.0,2.0,94,-99.99,,,0.00,0.120000,,2013-05-28 07:11:00,
2013-05-28 01:32:00,49.0,48.0,-100.00,SW,230,0.0,2.0,96,-99.99,,,0.00,0.230000,,2013-05-28 07:32:00,
2013-05-28 01:42:00,49.0,48.0,-100.00,SW,230,0.0,2.0,96,-99.99,,,0.00,0.230000,,2013-05-28 07:42:00,
2013-05-28 01:52:00,49.0,48.0,-100.00,SW,230,0.0,2.0,96,-99.99,,,0.00,0.230000,,2013-05-28 07:52:00,
2013-05-28 02:02:00,49.0,48.0,-100.00,SW,230,0.0,2.0,96,-99.99,,,0.00,0.230000,,2013-05-28 08:02:00,
2013-05-28 02:11:00,49.0,48.0,-100.00,SW,230,0.0,2.0,96,-99.99,,,0.00,0.230000,,2013-05-28 08:11:00,
2013-05-28 02:42:00,48.0,48.0,-100.00,South,179,0.0,0.0,99,-99.99,,,0.00,0.120000,,2013-05-28 08:42:00,
2013-05-28 02:52:00,48.0,48.0,-100.00,South,179,0.0,0.0,99,-99.99,,,0.00,0.120000,,2013-05-28 08:52:00,
2013-05-28 03:01:00,48.0,48.0,-100.00,South,179,0.0,0.0,99,-99.99,,,0.00,0.120000,,2013-05-28 09:01:00,
2013-05-28 03:11:00,48.0,48.0,-100.00,South,179,0.0,0.0,99,-99.99,,,0.00,0.120000,,2013-05-28 09:11:00,
2013-05-28 03:42:00,49.0,49.0,-100.00,ESE,116,0.0,1.0,100,-99.99,,,0.00,0.230000,,2013-05-28 09:42:00,
2013-05-28 03:54:00,49.0,49.0,-100.00,ESE,116,0.0,1.0,100,-99.99,,,0.00,0.230000,,2013-05-28 09:54:00,
2013-05-28 04:03:00,49.0,49.0,-100.00,ESE,116,0.0,1.0,100,-99.99,,,0.00,0.230000,,2013-05-28 10:03:00,
2013-05-28 04:12:00,49.0,49.0,-100.00,ESE,116,0.0,1.0,100,-99.99,,,0.00,0.230000,,2013-05-28 10:12:00,
2013-05-28 04:32:00,49.0,49.0,-100.00,North,0,0.0,0.0,100,-99.99,,,0.00,0.230000,,2013-05-28 10:32:00,
2013-05-28 04:42:00,49.0,49.0,-100.00,North,0,0.0,0.0,100,-99.99,,,0.00,0.230000,,2013-05-28 10:42:00,
2013-05-28 04:53:00,49.0,49.0,-100.00,North,0,0.0,0.0,100,-99.99,,,0.00,0.230000,,2013-05-28 10:53:00,
2013-05-28 05:02:00,49.0,49.0,-100.00,North,0,0.0,0.0,100,-99.99,,,0.00,0.230000,,2013-05-28 11:02:00,
2013-05-28 05:11:00,49.0,49.0,-100.00,North,0,0.0,0.0,100,-99.99,,,0.00,0.230000,,2013-05-28 11:11:00,
2013-05-28 05:32:00,49.0,49.0,-100.00,North,0,0.0,0.0,100,-99.99,,,0.00,0.230000,,2013-05-28 11:32:00,
2013-05-28 05:42:00,49.0,49.0,-100.00,North,0,0.0,0.0,100,-99.99,,,0.00,0.230000,,2013-05-28 11:42:00,
2013-05-28 05:52:00,49.0,49.0,-100.00,North,0,0.0,0.0,100,-99.99,,,0.00,0.230000,,2013-05-28 11:52:00,
2013-05-28 06:01:00,49.0,49.0,-100.00,North,0,0.0,0.0,100,-99.99,,,0.00,0.230000,,2013-05-28 12:01:00,
2013-05-28 06:11:00,49.0,49.0,-100.00,North,0,0.0,0.0,100,-99.99,,,0.00,0.230000,,2013-05-28 12:11:00,
2013-05-28 06:31:00,48.0,48.0,-100.00,North,0,0.0,0.0,100,-99.99,,,0.00,9.300000,,2013-05-28 12:31:00,
2013-05-28 06:42:00,48.0,48.0,-100.00,North,0,0.0,0.0,100,-99.99,,,0.00,9.300000,,2013-05-28 12:42:00,
2013-05-28 06:52:00,48.0,48.0,-100.00,North,0,0.0,0.0,100,-99.99,,,0.00,9.300000,,2013-05-28 12:52:00,
2013-05-28 07:01:00,48.0,48.0,-100.00,North,0,0.0,0.0,100,-99.99,,,0.00,9.300000,,2013-05-28 13:01:00,
2013-05-28 07:11:00,48.0,48.0,-100.00,North,0,0.0,0.0,100,-99.99,,,0.00,9.300000,,2013-05-28 13:11:00,
2013-05-28 07:42:00,48.0,48.0,-100.00,North,0,0.0,0.0,100,-99.99,,,0.00,47.650002,,2013-05-28 13:42:00,
2013-05-28 07:52:00,48.0,48.0,-100.00,North,0,0.0,0.0,100,-99.99,,,0.00,47.650002,,2013-05-28 13:52:00,
2013-05-28 08:01:00,48.0,48.0,-100.00,North,0,0.0,0.0,100,-99.99,,,0.00,47.650002,,2013-05-28 14:01:00,
2013-05-28 08:11:00,48.0,48.0,-100.00,North,0,0.0,0.0,100,-99.99,,,0.00,47.650002,,2013-05-28 14:11:00,
2013-05-28 08:32:00,49.0,49.0,-100.00,North,0,0.0,0.0,100,-99.99,,,0.00,56.950001,,2013-05-28 14:32:00,
2013-05-28 08:42:00,49.0,49.0,-100.00,North,0,0.0,0.0,100,-99.99,,,0.00,56.950001,,2013-05-28 14:42:00,
2013-05-28 08:52:00,49.0,49.0,-100.00,North,0,0.0,0.0,100,-99.99,,,0.00,56.950001,,2013-05-28 14:52:00,
2013-05-28 09:01:00,49.0,49.0,-100.00,North,0,0.0,0.0,100,-99.99,,,0.00,56.950001,,2013-05-28 15:01:00,
2013-05-28 09:11:00,49.0,49.0,-100.00,North,0,0.0,0.0,100,-99.99,,,0.00,56.950001,,2013-05-28 15:11:00,
2013-05-28 09:43:00,50.0,50.0,-100.00,NW,319,1.0,2.0,100,-99.99,,,0.00,131.210007,,2013-05-28 15:43:00,
2013-05-28 09:53:00,50.0,50.0,-100.00,NW,319,1.0,2.0,100,-99.99,,,0.00,131.210007,,2013-05-28 15:53:00,
2013-05-28 10:03:00,50.0,50.0,-100.00,NW,319,1.0,2.0,100,-99.99,,,0.00,131.210007,,2013-05-28 16:03:00,
2013-05-28 10:12:00,50.0,50.0,-100.00,NW,319,1.0,2.0,100,-99.99,,,0.00,131.210007,,2013-05-28 16:12:00,
2013-05-28 10:33:00,52.0,49.0,-100.00,West,269,1.0,4.0,88,-99.99,,,0.00,315.420013,,2013-05-28 16:33:00,
2013-05-28 10:42:00,52.0,49.0,-100.00,West,269,1.0,4.0,88,-99.99,,,0.00,315.420013,,2013-05-28 16:42:00,
2013-05-28 10:52:00,52.0,49.0,-100.00,West,269,1.0,4.0,88,-99.99,,,0.00,315.420013,,2013-05-28 16:52:00,
2013-05-28 11:02:00,52.0,49.0,-100.00,West,269,1.0,4.0,88,-99.99,,,0.00,315.420013,,2013-05-28 17:02:00,
2013-05-28 11:11:00,52.0,49.0,-100.00,West,269,1.0,4.0,88,-99.99,,,0.00,315.420013,,2013-05-28 17:11:00,
2013-05-28 11:41:00,55.0,49.0,-100.00,NE,37,1.0,4.0,79,-99.99,,,0.00,541.700012,,2013-05-28 17:41:00,
2013-05-28 11:52:00,55.0,49.0,-100.00,NE,37,1.0,4.0,79,-99.99,,,0.00,541.700012,,2013-05-28 17:52:00,
2013-05-28 12:01:00,55.0,49.0,-100.00,NE,37,1.0,4.0,79,-99.99,,,0.00,541.700012,,2013-05-28 18:01:00,
2013-05-28 12:11:00,55.0,49.0,-100.00,NE,37,1.0,4.0,79,-99.99,,,0.00,541.700012,,2013-05-28 18:11:00,
2013-05-28 12:42:00,58.0,47.0,-100.00,North,358,2.0,5.0,67,-99.99,,,0.00,771.000000,,2013-05-28 18:42:00,
2013-05-28 12:52:00,58.0,47.0,-100.00,North,358,2.0,5.0,67,-99.99,,,0.00,771.000000,,2013-05-28 18:52:00,
2013-05-28 13:01:00,58.0,47.0,-100.00,North,358,2.0,5.0,67,-99.99,,,0.00,771.000000,,2013-05-28 19:01:00,
2013-05-28 13:11:00,58.0,47.0,-100.00,North,358,2.0,5.0,67,-99.99,,,0.00,771.000000,,2013-05-28 19:11:00,
2013-05-28 13:41:00,61.0,47.0,-100.00,North,354,2.0,7.0,60,-99.99,,,0.00,782.280029,,2013-05-28 19:41:00,
2013-05-28 13:52:00,61.0,47.0,-100.00,North,354,2.0,7.0,60,-99.99,,,0.00,782.280029,,2013-05-28 19:52:00,
2013-05-28 14:01:00,61.0,47.0,-100.00,North,354,2.0,7.0,60,-99.99,,,0.00,782.280029,,2013-05-28 20:01:00,
2013-05-28 14:11:00,61.0,47.0,-100.00,North,354,2.0,7.0,60,-99.99,,,0.00,782.280029,,2013-05-28 20:11:00,
2013-05-28 14:32:00,61.0,49.0,-100.00,North,352,4.0,11.0,66,-99.99,,,0.00,527.289978,,2013-05-28 20:32:00,
2013-05-28 14:42:00,61.0,49.0,-100.00,North,352,4.0,11.0,66,-99.99,,,0.00,527.289978,,2013-05-28 20:42:00,
2013-05-28 14:52:00,61.0,49.0,-100.00,North,352,4.0,11.0,66,-99.99,,,0.00,527.289978,,2013-05-28 20:52:00,
2013-05-28 15:01:00,61.0,49.0,-100.00,North,352,4.0,11.0,66,-99.99,,,0.00,527.289978,,2013-05-28 21:01:00,
2013-05-28 15:11:00,61.0,49.0,-100.00,North,352,4.0,11.0,66,-99.99,,,0.00,527.289978,,2013-05-28 21:11:00,
2013-05-28 15:43:00,54.0,51.0,-100.00,NNW,340,3.0,9.0,87,-99.99,,,0.01,205.009995,,2013-05-28 21:43:00,
2013-05-28 15:53:00,54.0,51.0,-100.00,NNW,340,3.0,9.0,87,-99.99,,,0.01,205.009995,,2013-05-28 21:53:00,
2013-05-28 16:02:00,54.0,51.0,-100.00,NNW,340,3.0,9.0,87,-99.99,,,0.01,205.009995,,2013-05-28 22:02:00,
2013-05-28 16:12:00,54.0,51.0,-100.00,NNW,340,3.0,9.0,87,-99.99,,,0.01,205.009995,,2013-05-28 22:12:00,
2013-05-28 16:42:00,59.0,49.0,-100.00,WNW,298,3.0,6.0,69,-99.99,,,0.01,670.590027,,2013-05-28 22:42:00,
2013-05-28 16:52:00,59.0,49.0,-100.00,WNW,298,3.0,6.0,69,-99.99,,,0.01,670.590027,,2013-05-28 22:52:00,
2013-05-28 17:02:00,59.0,49.0,-100.00,WNW,298,3.0,6.0,69,-99.99,,,0.01,670.590027,,2013-05-28 23:02:00,
2013-05-28 17:11:00,59.0,49.0,-100.00,WNW,298,3.0,6.0,69,-99.99,,,0.01,670.590027,,2013-05-28 23:11:00,
2013-05-28 17:32:00,60.0,46.0,-100.00,West,275,3.0,7.0,59,-99.99,,,-99.99,577.849976,,2013-05-28 23:32:00,
2013-05-28 17:42:00,60.0,46.0,-100.00,West,275,3.0,7.0,59,-99.99,,,-99.99,577.849976,,2013-05-28 23:42:00,
2013-05-28 17:52:00,60.0,46.0,-100.00,West,275,3.0,7.0,59,-99.99,,,-99.99,577.849976,,2013-05-28 23:52:00,
2013-05-28 18:02:00,60.0,46.0,-100.00,West,275,3.0,7.0,59,-99.99,,,-99.99,577.849976,,2013-05-29 00:02:00,
2013-05-28 18:11:00,60.0,46.0,-100.00,West,275,3.0,7.0,59,-99.99,,,-99.99,577.849976,,2013-05-29 00:11:00,
2013-05-28 18:41:00,61.0,49.0,-100.00,NNE,17,2.0,7.0,63,-99.99,,,0.00,512.070007,,2013-05-29 00:41:00,
2013-05-28 18:52:00,61.0,49.0,-100.00,NNE,17,2.0,7.0,63,-99.99,,,0.00,512.070007,,2013-05-29 00:52:00,
2013-05-28 19:01:00,61.0,49.0,-100.00,NNE,17,2.0,7.0,63,-99.99,,,0.00,512.070007,,2013-05-29 01:01:00,
2013-05-28 19:11:00,61.0,49.0,-100.00,NNE,17,2.0,7.0,63,-99.99,,,0.00,512.070007,,2013-05-29 01:11:00,
2013-05-28 19:32:00,58.0,49.0,-100.00,WNW,292,3.0,6.0,74,-99.99,,,0.01,212.800003,,2013-05-29 01:32:00,
2013-05-28 19:41:00,58.0,49.0,-100.00,WNW,292,3.0,6.0,74,-99.99,,,0.01,212.800003,,2013-05-29 01:41:00,
2013-05-28 19:52:00,58.0,49.0,-100.00,WNW,292,3.0,6.0,74,-99.99,,,0.01,212.800003,,2013-05-29 01:52:00,
2013-05-28 20:02:00,58.0,49.0,-100.00,WNW,292,3.0,6.0,74,-99.99,,,0.01,212.800003,,2013-05-29 02:02:00,
2013-05-28 20:12:00,58.0,49.0,-100.00,WNW,292,3.0,6.0,74,-99.99,,,0.01,212.800003,,2013-05-29 02:12:00,
2013-05-28 20:32:00,58.0,46.0,-100.00,NNW,348,2.0,7.0,64,-99.99,,,0.01,150.619995,,2013-05-29 02:32:00,
2013-05-28 20:42:00,58.0,46.0,-100.00,NNW,348,2.0,7.0,64,-99.99,,,0.01,150.619995,,2013-05-29 02:42:00,
2013-05-28 20:52:00,58.0,46.0,-100.00,NNW,348,2.0,7.0,64,-99.99,,,0.01,150.619995,,2013-05-29 02:52:00,
2013-05-28 21:01:00,58.0,46.0,-100.00,NNW,348,2.0,7.0,64,-99.99,,,0.01,150.619995,,2013-05-29 03:01:00,
2013-05-28 21:11:00,58.0,46.0,-100.00,NNW,348,2.0,7.0,64,-99.99,,,0.01,150.619995,,2013-05-29 03:11:00,
2013-05-28 21:43:00,52.0,49.0,-100.00,North,0,0.0,0.0,89,-99.99,,,0.01,8.140000,,2013-05-29 03:43:00,
2013-05-28 21:53:00,52.0,49.0,-100.00,North,0,0.0,0.0,89,-99.99,,,0.01,8.140000,,2013-05-29 03:53:00,
2013-05-28 22:02:00,52.0,49.0,-100.00,North,0,0.0,0.0,89,-99.99,,,0.01,8.140000,,2013-05-29 04:02:00,
2013-05-28 22:12:00,52.0,49.0,-100.00,North,0,0.0,0.0,89,-99.99,,,0.01,8.140000,,2013-05-29 04:12:00,
2013-05-28 22:33:00,52.0,49.0,-100.00,North,0,0.0,0.0,90,-99.99,,,0.01,0.000000,,2013-05-29 04:33:00,
2013-05-28 22:42:00,52.0,49.0,-100.00,North,0,0.0,0.0,90,-99.99,,,0.01,0.000000,,2013-05-29 04:42:00,
2013-05-28 22:52:00,52.0,49.0,-100.00,North,0,0.0,0.0,90,-99.99,,,0.01,0.000000,,2013-05-29 04:52:00,
2013-05-28 23:02:00,52.0,49.0,-100.00,North,0,0.0,0.0,90,-99.99,,,0.01,0.000000,,2013-05-29 05:02:00,
2013-05-28 23:12:00,52.0,49.0,-100.00,North,0,0.0,0.0,90,-99.99,,,0.01,0.000000,,2013-05-29 05:12:00,
2013-05-28 23:32:00,52.0,50.0,-100.00,ENE,57,0.0,2.0,91,-99.99,,,0.00,0.000000,,2013-05-29 05:32:00,
2013-05-28 23:42:00,52.0,50.0,-100.00,ENE,57,0.0,2.0,91,-99.99,,,0.00,0.000000,,2013-05-29 05:42:00,
2013-05-28 23:52:00,52.0,50.0,-100.00,ENE,57,0.0,2.0,91,-99.99,,,0.00,0.000000,,2013-05-29 05:52:00,